Time;durP1;ratioP1;P1;durP2;ratioP2;P2;SDS_P1;SDS_P2;PMS_P1;PMS_P2;Temp;Humidity;BMP_temperature;BMP_pressure;BME280_temperature;BME280_humidity;BME280_pressure;Samples;Min_cycle;Max_cycle;Signal;HPM_P1;HPM_P2
2022/12/31 00:01:54;;;;;;;1.60;1.50;;;12.60;99.90;;;;;;5117404;28;20449;-55
2022/12/31 00:04:21;;;;;;;1.73;1.63;;;12.60;99.90;;;;;;5117278;28;20778;-55
2022/12/31 00:06:48;;;;;;;2.63;1.77;;;12.60;99.90;;;;;;5117201;28;20438;-55
2022/12/31 00:09:15;;;;;;;1.60;1.37;;;12.60;99.90;;;;;;5116823;28;20446;-55
2022/12/31 00:11:44;;;;;;;2.10;1.87;;;12.70;99.90;;;;;;5117137;28;20486;-55
2022/12/31 00:14:11;;;;;;;1.90;1.70;;;12.70;99.90;;;;;;5117084;28;20446;-55
2022/12/31 00:16:40;;;;;;;1.93;1.70;;;12.70;99.90;;;;;;5116858;28;20446;-55
2022/12/31 00:19:10;;;;;;;2.03;1.83;;;12.70;99.90;;;;;;5116769;28;20800;-55
2022/12/31 00:21:38;;;;;;;1.90;1.70;;;12.70;99.90;;;;;;5116747;28;20933;-55
2022/12/31 00:24:06;;;;;;;1.40;1.30;;;12.70;99.90;;;;;;5116875;28;20446;-55
2022/12/31 00:26:34;;;;;;;1.67;1.40;;;12.70;99.90;;;;;;5116626;28;20480;-55
2022/12/31 00:29:04;;;;;;;1.80;1.70;;;12.70;99.90;;;;;;5116834;28;20620;-55
2022/12/31 00:31:32;;;;;;;1.70;1.60;;;12.70;99.90;;;;;;5116732;28;20489;-55
2022/12/31 00:34:00;;;;;;;1.40;1.30;;;12.70;99.90;;;;;;5116411;28;20970;-55
2022/12/31 00:36:28;;;;;;;2.70;1.57;;;12.80;99.90;;;;;;5116756;28;20446;-55
2022/12/31 00:38:57;;;;;;;1.50;1.37;;;12.90;99.90;;;;;;5116795;28;20451;-55
2022/12/31 00:41:25;;;;;;;2.03;1.40;;;12.90;99.90;;;;;;5116522;28;20469;-54
2022/12/31 00:43:53;;;;;;;1.47;1.37;;;13.00;99.90;;;;;;5116052;28;20480;-55
2022/12/31 00:46:22;;;;;;;2.10;1.90;;;13.00;99.90;;;;;;5116566;28;20438;-55
2022/12/31 00:48:49;;;;;;;2.93;1.50;;;13.00;99.90;;;;;;5116454;28;20447;-55
2022/12/31 00:51:20;;;;;;;2.07;1.50;;;13.00;99.90;;;;;;5116056;28;20980;-55
2022/12/31 00:53:47;;;;;;;2.17;1.50;;;12.90;99.90;;;;;;5116395;28;20439;-55
2022/12/31 00:56:17;;;;;;;1.60;1.30;;;13.00;99.90;;;;;;5115419;28;20466;-55
2022/12/31 00:58:44;;;;;;;3.97;1.90;;;13.00;99.90;;;;;;5116257;28;20446;-54
2022/12/31 01:01:12;;;;;;;2.37;1.50;;;13.20;99.90;;;;;;5115927;28;20821;-55
2022/12/31 01:03:41;;;;;;;1.77;1.67;;;13.30;99.90;;;;;;5115982;28;20442;-55
2022/12/31 01:06:09;;;;;;;1.50;1.40;;;13.40;99.90;;;;;;5115873;28;20457;-54
2022/12/31 01:08:36;;;;;;;3.27;1.80;;;13.40;99.90;;;;;;5116113;28;20454;-55
2022/12/31 01:11:20;;;;;;;2.13;1.30;;;13.40;99.90;;;;;;5115696;28;20488;-55
2022/12/31 01:13:49;;;;;;;1.53;1.43;;;13.40;99.90;;;;;;5115761;28;20909;-55
2022/12/31 01:16:17;;;;;;;1.87;1.73;;;13.30;99.90;;;;;;5115788;28;20917;-54
2022/12/31 01:18:46;;;;;;;1.80;1.70;;;13.30;99.90;;;;;;5115578;28;20442;-55
2022/12/31 01:21:14;;;;;;;1.40;1.30;;;13.60;99.90;;;;;;5115540;28;20461;-55
2022/12/31 01:23:42;;;;;;;1.50;1.40;;;13.60;99.90;;;;;;5115829;28;20481;-55
2022/12/31 01:26:11;;;;;;;1.43;1.33;;;13.70;99.90;;;;;;5115517;28;20913;-55
2022/12/31 01:28:38;;;;;;;1.83;1.73;;;13.60;99.90;;;;;;5115664;28;20446;-55
2022/12/31 01:31:06;;;;;;;1.40;1.30;;;13.70;99.90;;;;;;5115350;28;20482;-55
2022/12/31 01:33:34;;;;;;;1.50;1.40;;;13.70;99.90;;;;;;5115252;28;20450;-55
2022/12/31 01:36:08;;;;;;;2.07;1.30;;;13.70;99.90;;;;;;5115629;28;20450;-55
2022/12/31 01:38:36;;;;;;;1.90;1.60;;;13.70;99.90;;;;;;5115572;28;20533;-55
2022/12/31 01:41:04;;;;;;;2.70;1.80;;;13.80;99.90;;;;;;5115148;28;20500;-55
2022/12/31 01:43:46;;;;;;;1.67;1.50;;;13.80;99.90;;;;;;5114841;28;20995;-55
2022/12/31 01:46:20;;;;;;;3.10;1.87;;;13.80;99.90;;;;;;5115596;28;20445;-55
2022/12/31 01:48:51;;;;;;;2.43;2.10;;;13.70;99.90;;;;;;5115412;28;20426;-55
2022/12/31 01:51:21;;;;;;;1.93;1.80;;;13.70;99.90;;;;;;5114952;28;20470;-55
2022/12/31 01:53:48;;;;;;;1.50;1.40;;;13.70;99.90;;;;;;5115231;28;20458;-55
2022/12/31 01:56:16;;;;;;;2.03;1.83;;;13.60;99.90;;;;;;5114813;28;20443;-55
2022/12/31 01:58:47;;;;;;;1.83;1.50;;;13.60;99.90;;;;;;5115130;28;20446;-55
2022/12/31 02:01:21;;;;;;;1.50;1.40;;;13.70;99.90;;;;;;5114994;28;20490;-55
2022/12/31 02:03:48;;;;;;;4.23;1.57;;;13.60;99.90;;;;;;5115108;28;20466;-55
2022/12/31 02:06:20;;;;;;;1.80;1.70;;;13.70;99.90;;;;;;5114845;28;20442;-55
2022/12/31 02:08:48;;;;;;;2.37;1.50;;;13.70;99.90;;;;;;5115129;28;20465;-55
2022/12/31 02:11:26;;;;;;;1.77;1.67;;;13.80;99.90;;;;;;5114388;28;20490;-55
2022/12/31 02:13:56;;;;;;;2.00;1.50;;;13.80;99.90;;;;;;5114543;28;20431;-55
2022/12/31 02:16:30;;;;;;;1.70;1.60;;;13.70;99.90;;;;;;5115131;28;20453;-55
2022/12/31 02:19:03;;;;;;;1.50;1.40;;;13.70;99.90;;;;;;5114690;28;20418;-55
2022/12/31 02:21:52;;;;;;;1.60;1.50;;;13.70;99.90;;;;;;5114431;28;21004;-55
2022/12/31 02:24:48;;;;;;;1.60;1.50;;;13.60;99.90;;;;;;5114433;28;20923;-55
2022/12/31 02:27:29;;;;;;;1.87;1.70;;;13.60;99.90;;;;;;5114663;28;20427;-55
2022/12/31 02:30:15;;;;;;;2.10;1.87;;;13.60;99.90;;;;;;5114192;28;20973;-55
2022/12/31 02:32:58;;;;;;;2.33;2.13;;;13.60;99.90;;;;;;5112912;28;20561;-55
2022/12/31 02:35:30;;;;;;;2.33;2.13;;;13.50;99.90;;;;;;5114540;28;20437;-55
2022/12/31 02:38:04;;;;;;;2.70;2.50;;;13.40;99.90;;;;;;5114395;28;20481;-55
2022/12/31 02:40:34;;;;;;;3.57;2.20;;;13.20;99.90;;;;;;5114413;28;20466;-55
2022/12/31 02:43:02;;;;;;;1.80;1.70;;;13.20;99.90;;;;;;5114027;28;20949;-56
2022/12/31 02:45:37;;;;;;;1.63;1.53;;;13.30;99.90;;;;;;5114432;28;20427;-55
2022/12/31 02:48:29;;;;;;;9.93;2.17;;;13.30;99.90;;;;;;5114329;28;20426;-54
2022/12/31 02:51:08;;;;;;;3.70;1.50;;;13.30;99.90;;;;;;5114137;28;20469;-54
2022/12/31 02:53:58;;;;;;;1.53;1.43;;;13.30;99.90;;;;;;5113937;28;20968;-55
2022/12/31 02:56:31;;;;;;;2.40;2.17;;;13.30;99.90;;;;;;5114227;28;20439;-54
2022/12/31 03:04:40;;;;;;;5.43;1.80;;;13.70;99.90;;;;;;5113940;28;20496;-55
2022/12/31 03:07:10;;;;;;;1.60;1.50;;;13.80;99.90;;;;;;5114029;28;20452;-56
2022/12/31 03:09:38;;;;;;;1.60;1.47;;;14.00;99.90;;;;;;5114006;28;20462;-55
2022/12/31 03:14:52;;;;;;;1.77;1.67;;;14.00;99.90;;;;;;5114036;28;20484;-54
2022/12/31 03:17:21;;;;;;;1.60;1.50;;;14.20;99.90;;;;;;5113659;28;20542;-55
2022/12/31 03:22:35;;;;;;;1.60;1.50;;;14.30;99.90;;;;;;5117930;28;20472;-55
2022/12/31 03:27:49;;;;;;;2.70;1.50;;;14.10;99.90;;;;;;5118057;28;20452;-55
2022/12/31 03:30:18;;;;;;;5.30;1.70;;;14.30;99.90;;;;;;5117625;28;20473;-55
2022/12/31 03:32:50;;;;;;;1.77;1.67;;;14.30;99.90;;;;;;5117661;28;20510;-56
2022/12/31 03:35:19;;;;;;;2.80;1.63;;;14.40;99.90;;;;;;5117922;28;20455;-57
2022/12/31 03:37:46;;;;;;;2.57;1.60;;;14.40;99.90;;;;;;5117794;28;20476;-55
2022/12/31 03:40:15;;;;;;;2.03;1.40;;;14.50;99.90;;;;;;5117532;28;20859;-55
2022/12/31 03:42:43;;;;;;;1.90;1.50;;;14.60;99.90;;;;;;5117587;28;20449;-55
2022/12/31 03:45:11;;;;;;;2.03;1.50;;;14.80;99.90;;;;;;5117493;28;20434;-55
2022/12/31 03:47:39;;;;;;;2.23;1.73;;;14.70;99.90;;;;;;5117727;28;20469;-55
2022/12/31 03:50:09;;;;;;;1.53;1.43;;;14.70;99.90;;;;;;5117273;28;20466;-56
2022/12/31 03:52:37;;;;;;;1.50;1.40;;;14.80;99.90;;;;;;5117611;28;20469;-55
2022/12/31 03:55:04;;;;;;;1.40;1.30;;;14.80;99.90;;;;;;5117251;28;20446;-56
2022/12/31 03:57:32;;;;;;;1.80;1.40;;;14.80;99.90;;;;;;5117236;28;20951;-55
2022/12/31 03:59:59;;;;;;;1.80;1.47;;;14.80;99.90;;;;;;5117394;28;20503;-55
2022/12/31 04:02:26;;;;;;;1.97;1.33;;;14.90;99.90;;;;;;5117462;28;20528;-55
2022/12/31 04:04:53;;;;;;;1.77;1.40;;;15.00;99.90;;;;;;5117021;28;20452;-55
2022/12/31 04:07:22;;;;;;;1.70;1.60;;;14.90;99.90;;;;;;5117323;28;20545;-55
2022/12/31 04:09:49;;;;;;;1.40;1.30;;;14.90;99.90;;;;;;5117010;28;20464;-55
2022/12/31 04:12:16;;;;;;;1.77;1.50;;;14.80;99.90;;;;;;5116881;28;20475;-55
2022/12/31 04:14:43;;;;;;;1.63;1.30;;;14.80;99.90;;;;;;5117255;28;20443;-56
2022/12/31 04:17:10;;;;;;;1.63;1.50;;;15.00;99.90;;;;;;5116817;28;20457;-55
2022/12/31 04:19:37;;;;;;;1.40;1.30;;;15.00;99.90;;;;;;5116737;28;20837;-54
2022/12/31 04:22:05;;;;;;;1.40;1.30;;;15.10;99.90;;;;;;5117061;28;20442;-54
2022/12/31 04:24:33;;;;;;;1.30;1.20;;;15.10;99.90;;;;;;5116707;28;20447;-55
2022/12/31 04:27:00;;;;;;;3.80;1.67;;;15.10;99.90;;;;;;5116598;28;20451;-55
2022/12/31 04:29:30;;;;;;;1.50;1.40;;;15.10;99.90;;;;;;5115961;28;20529;-55
2022/12/31 04:31:57;;;;;;;2.50;1.40;;;15.10;99.90;;;;;;5116070;28;20839;-54
2022/12/31 04:34:24;;;;;;;1.67;1.37;;;15.20;99.90;;;;;;5116828;28;20458;-55
2022/12/31 04:36:51;;;;;;;1.70;1.60;;;15.10;99.90;;;;;;5116639;28;20443;-55
2022/12/31 04:39:18;;;;;;;1.50;1.40;;;15.10;99.90;;;;;;5116280;28;20429;-55
2022/12/31 04:41:47;;;;;;;2.07;1.37;;;15.20;99.90;;;;;;5116642;28;20465;-55
2022/12/31 04:44:14;;;;;;;1.50;1.40;;;15.10;99.90;;;;;;5116265;28;20484;-55
2022/12/31 04:46:41;;;;;;;1.63;1.53;;;15.20;99.90;;;;;;5116553;28;20442;-55
2022/12/31 04:49:08;;;;;;;1.70;1.60;;;15.20;99.90;;;;;;5116737;28;20538;-55
2022/12/31 04:51:36;;;;;;;1.30;1.20;;;15.20;99.90;;;;;;5115988;28;20878;-56
2022/12/31 04:54:04;;;;;;;2.37;1.40;;;15.30;99.90;;;;;;5116190;28;20461;-56
2022/12/31 04:56:32;;;;;;;2.50;1.60;;;15.20;99.90;;;;;;5116046;28;20932;-55
2022/12/31 04:59:00;;;;;;;1.50;1.40;;;15.10;99.90;;;;;;5116376;28;20446;-55
2022/12/31 05:01:27;;;;;;;2.37;1.27;;;15.20;99.90;;;;;;5115953;28;20965;-56
2022/12/31 05:03:54;;;;;;;1.93;1.83;;;15.10;99.90;;;;;;5116302;28;20442;-55
2022/12/31 05:06:23;;;;;;;1.40;1.30;;;15.10;99.90;;;;;;5116011;28;20423;-55
2022/12/31 05:08:50;;;;;;;1.50;1.40;;;15.00;99.90;;;;;;5116344;28;20461;-55
2022/12/31 05:11:17;;;;;;;1.50;1.40;;;15.10;99.90;;;;;;5116044;28;20466;-55
2022/12/31 05:13:45;;;;;;;1.67;1.57;;;15.10;99.90;;;;;;5116021;28;20490;-54
2022/12/31 05:16:13;;;;;;;1.57;1.47;;;14.90;99.90;;;;;;5116034;28;20443;-56
2022/12/31 05:18:40;;;;;;;1.40;1.20;;;14.80;99.90;;;;;;5115692;28;20453;-55
2022/12/31 05:21:07;;;;;;;2.23;1.30;;;14.70;99.90;;;;;;5115890;28;20573;-56
2022/12/31 05:23:35;;;;;;;1.50;1.30;;;14.70;99.90;;;;;;5115548;28;20445;-56
2022/12/31 05:26:02;;;;;;;2.13;1.43;;;14.80;99.90;;;;;;5115834;28;20443;-55
2022/12/31 05:28:29;;;;;;;2.40;1.27;;;14.80;99.90;;;;;;5115695;28;20450;-55
2022/12/31 05:30:56;;;;;;;1.23;1.13;;;14.90;99.90;;;;;;5115408;28;20828;-55
2022/12/31 05:33:24;;;;;;;1.77;1.67;;;14.90;99.90;;;;;;5115574;28;20500;-55
2022/12/31 05:35:52;;;;;;;3.43;1.60;;;14.90;99.90;;;;;;5115362;28;20529;-56
2022/12/31 05:38:19;;;;;;;1.40;1.30;;;14.90;99.90;;;;;;5115419;28;20924;-55
2022/12/31 05:40:46;;;;;;;2.50;1.50;;;14.90;99.90;;;;;;5115072;28;20469;-55
2022/12/31 05:43:13;;;;;;;3.27;1.67;;;14.90;99.90;;;;;;5115122;28;20891;-56
2022/12/31 05:45:40;;;;;;;2.80;1.70;;;14.80;99.90;;;;;;5115394;28;20453;-55
2022/12/31 05:48:07;;;;;;;1.30;1.20;;;14.90;99.90;;;;;;5115010;28;20450;-56
2022/12/31 05:50:36;;;;;;;1.47;1.37;;;14.90;99.90;;;;;;5115009;28;20999;-55
2022/12/31 05:53:03;;;;;;;1.67;1.57;;;14.80;99.90;;;;;;5114871;28;20810;-55
2022/12/31 05:55:30;;;;;;;1.40;1.30;;;14.70;99.90;;;;;;5114888;28;20443;-55
2022/12/31 05:57:57;;;;;;;1.60;1.50;;;14.60;99.90;;;;;;5114775;28;20812;-55
2022/12/31 06:00:24;;;;;;;1.63;1.53;;;14.70;99.90;;;;;;5114779;28;20972;-55
2022/12/31 06:02:51;;;;;;;6.80;1.70;;;14.70;99.90;;;;;;5114975;28;20443;-54
2022/12/31 06:05:18;;;;;;;1.50;1.40;;;14.70;99.90;;;;;;5115074;28;20471;-55
2022/12/31 06:07:47;;;;;;;2.70;1.57;;;14.60;99.90;;;;;;5114520;28;20450;-55
2022/12/31 06:10:14;;;;;;;1.60;1.50;;;14.50;99.90;;;;;;5114544;28;20463;-55
2022/12/31 06:12:41;;;;;;;1.60;1.40;;;14.40;99.90;;;;;;5114446;28;20481;-55
2022/12/31 06:15:10;;;;;;;4.43;1.63;;;14.40;99.90;;;;;;5115209;28;20538;-55
2022/12/31 06:17:37;;;;;;;2.27;2.00;;;14.50;99.90;;;;;;5114845;28;20503;-55
2022/12/31 06:20:05;;;;;;;2.70;1.60;;;14.40;99.90;;;;;;5114387;28;21049;-55
2022/12/31 06:22:32;;;;;;;1.53;1.43;;;14.40;99.90;;;;;;5114771;28;20445;-55
2022/12/31 06:25:00;;;;;;;1.50;1.40;;;14.50;99.90;;;;;;5114309;28;20443;-55
2022/12/31 06:27:27;;;;;;;1.50;1.40;;;14.50;99.90;;;;;;5114681;28;20446;-56
2022/12/31 06:29:54;;;;;;;2.50;1.50;;;14.50;99.90;;;;;;5114176;28;21026;-55
2022/12/31 06:32:21;;;;;;;1.50;1.40;;;14.50;99.90;;;;;;5114232;28;21005;-55
2022/12/31 06:34:49;;;;;;;1.57;1.47;;;14.60;99.90;;;;;;5114210;28;20446;-55
2022/12/31 06:37:16;;;;;;;1.60;1.50;;;14.60;99.90;;;;;;5114468;28;20458;-55
2022/12/31 06:39:43;;;;;;;1.67;1.57;;;14.60;99.90;;;;;;5114292;28;20859;-55
2022/12/31 06:42:13;;;;;;;1.70;1.40;;;14.60;99.90;;;;;;5114448;28;20449;-55
2022/12/31 06:44:40;;;;;;;4.03;1.60;;;14.70;99.90;;;;;;5113872;28;20478;-55
2022/12/31 06:47:07;;;;;;;1.60;1.33;;;14.80;99.90;;;;;;5114354;28;20481;-55
2022/12/31 06:49:34;;;;;;;1.40;1.30;;;14.80;99.90;;;;;;5113880;28;20469;-56
2022/12/31 06:52:01;;;;;;;1.60;1.50;;;14.70;99.90;;;;;;5113817;28;20446;-56
2022/12/31 06:54:28;;;;;;;1.93;1.43;;;14.80;99.90;;;;;;5113379;28;20453;-55
2022/12/31 06:56:55;;;;;;;1.60;1.50;;;14.80;99.90;;;;;;5113963;28;20485;-54
2022/12/31 06:59:27;;;;;;;1.40;1.30;;;14.70;99.90;;;;;;5114073;28;20880;-56
2022/12/31 07:02:07;;;;;;;1.50;1.40;;;14.70;99.90;;;;;;5113885;28;20518;-55
2022/12/31 07:05:09;;;;;;;1.50;1.40;;;14.70;99.90;;;;;;5114164;28;20399;-56
2022/12/31 07:07:48;;;;;;;1.30;1.20;;;14.70;99.90;;;;;;5031052;28;20450;-56
2022/12/31 07:10:24;;;;;;;1.70;1.60;;;14.70;99.90;;;;;;5104022;28;20465;-54
2022/12/31 07:13:06;;;;;;;1.67;1.57;;;14.70;99.90;;;;;;5113973;28;20466;-54
2022/12/31 07:15:50;;;;;;;1.60;1.50;;;14.70;99.90;;;;;;5114028;28;20434;-55
2022/12/31 07:18:29;;;;;;;3.20;1.50;;;14.70;99.90;;;;;;5113650;28;20906;-55
2022/12/31 07:20:56;;;;;;;2.43;1.37;;;14.70;99.90;;;;;;5113645;28;20999;-55
2022/12/31 07:23:24;;;;;;;2.07;1.53;;;14.60;99.90;;;;;;5113586;28;20423;-56
2022/12/31 07:25:58;;;;;;;1.80;1.70;;;14.70;99.90;;;;;;5113910;28;20447;-55
2022/12/31 07:28:38;;;;;;;1.67;1.43;;;14.70;99.90;;;;;;5113551;28;20429;-55
2022/12/31 07:31:17;;;;;;;1.50;1.40;;;14.60;99.90;;;;;;5113439;28;20472;-55
2022/12/31 07:33:55;;;;;;;2.20;1.20;;;14.70;99.90;;;;;;5113447;28;20466;-55
2022/12/31 07:36:36;;;;;;;1.53;1.40;;;14.80;99.90;;;;;;5113486;28;20933;-55
2022/12/31 07:39:08;;;;;;;2.07;1.87;;;14.80;99.90;;;;;;5113876;28;20460;-55
2022/12/31 07:41:44;;;;;;;3.27;1.40;;;14.90;99.90;;;;;;5113710;28;20473;-55
2022/12/31 07:44:19;;;;;;;1.27;1.17;;;14.90;99.90;;;;;;5113399;28;20553;-55
2022/12/31 07:46:55;;;;;;;2.43;1.77;;;14.90;99.90;;;;;;5113720;28;20426;-55
2022/12/31 07:49:23;;;;;;;4.57;1.37;;;14.90;99.90;;;;;;5113660;28;20434;-55
2022/12/31 07:51:51;;;;;;;3.57;1.40;;;15.00;99.90;;;;;;5113643;28;20499;-55
2022/12/31 07:54:21;;;;;;;1.27;1.17;;;15.00;99.90;;;;;;5113592;28;20462;-55
2022/12/31 07:56:50;;;;;;;1.73;1.37;;;15.10;99.90;;;;;;5113295;28;20439;-55
2022/12/31 07:59:30;;;;;;;1.93;1.40;;;15.10;99.90;;;;;;5113397;28;20459;-55
2022/12/31 08:02:05;;;;;;;2.70;1.70;;;15.20;99.90;;;;;;5113121;28;20488;-55
2022/12/31 08:04:42;;;;;;;3.23;1.63;;;15.10;99.90;;;;;;5114502;28;20509;-55
2022/12/31 08:07:18;;;;;;;1.50;1.40;;;15.20;99.90;;;;;;5117275;28;20456;-55
2022/12/31 08:09:55;;;;;;;1.40;1.30;;;15.30;99.90;;;;;;5116976;28;20549;-55
2022/12/31 08:12:24;;;;;;;1.60;1.50;;;15.30;99.90;;;;;;5116904;28;20426;-55
2022/12/31 08:14:52;;;;;;;1.70;1.53;;;15.40;99.90;;;;;;5117129;28;20446;-55
2022/12/31 08:17:21;;;;;;;1.40;1.20;;;15.50;99.90;;;;;;5117133;28;20524;-55
2022/12/31 08:19:48;;;;;;;1.40;1.23;;;15.50;99.90;;;;;;5116983;28;20465;-55
2022/12/31 08:22:29;;;;;;;2.50;1.57;;;15.50;99.90;;;;;;5117054;28;20453;-55
2022/12/31 08:25:12;;;;;;;1.47;1.37;;;15.60;99.90;;;;;;5116621;28;20928;-55
2022/12/31 08:27:48;;;;;;;1.57;1.47;;;15.60;99.90;;;;;;5116859;28;20431;-55
2022/12/31 08:30:17;;;;;;;3.73;1.50;;;15.70;99.90;;;;;;5116861;28;20486;-55
2022/12/31 08:32:51;;;;;;;1.77;1.40;;;15.70;99.90;;;;;;5116799;28;20442;-55
2022/12/31 08:35:32;;;;;;;1.67;1.57;;;15.70;99.90;;;;;;5116853;28;20439;-55
2022/12/31 08:38:08;;;;;;;1.50;1.40;;;15.80;99.90;;;;;;5116795;28;20450;-55
2022/12/31 08:40:50;;;;;;;1.77;1.40;;;15.80;99.90;;;;;;5116484;28;20480;-55
2022/12/31 08:43:32;;;;;;;2.00;1.50;;;15.70;99.90;;;;;;5116258;28;20488;-55
2022/12/31 08:46:00;;;;;;;1.80;1.30;;;15.70;99.90;;;;;;5116335;28;20785;-55
2022/12/31 08:48:37;;;;;;;1.57;1.47;;;15.70;99.90;;;;;;5116511;28;20454;-55
2022/12/31 08:51:04;;;;;;;2.10;1.90;;;15.70;99.90;;;;;;5116191;28;20458;-55
2022/12/31 08:53:33;;;;;;;1.80;1.50;;;15.70;99.90;;;;;;5116017;28;20477;-56
2022/12/31 08:56:02;;;;;;;1.60;1.33;;;;;;;;;;5116334;28;20569;-55
2022/12/31 08:58:41;;;;;;;1.50;1.40;;;15.90;99.90;;;;;;5116310;28;20450;-55
2022/12/31 09:01:09;;;;;;;1.80;1.33;;;15.90;99.90;;;;;;5115945;28;20549;-55
2022/12/31 09:03:53;;;;;;;1.50;1.40;;;15.90;99.90;;;;;;5115837;28;20534;-55
2022/12/31 09:06:29;;;;;;;1.90;1.40;;;16.00;99.90;;;;;;5115880;28;20407;-55
2022/12/31 09:09:04;;;;;;;2.30;1.90;;;16.00;99.90;;;;;;5116248;28;20900;-55
2022/12/31 09:11:40;;;;;;;1.80;1.40;;;16.10;99.90;;;;;;5115708;28;20466;-55
2022/12/31 09:14:24;;;;;;;2.17;1.67;;;16.00;99.90;;;;;;5115956;28;20466;-55
2022/12/31 09:17:02;;;;;;;1.80;1.60;;;16.10;99.90;;;;;;5114951;28;20422;-55
2022/12/31 09:19:30;;;;;;;1.90;1.80;;;16.10;99.90;;;;;;5115856;28;20430;-55
2022/12/31 09:21:58;;;;;;;2.27;1.90;;;16.20;99.90;;;;;;5115622;28;20996;-55
2022/12/31 09:24:26;;;;;;;2.00;1.80;;;16.30;99.90;;;;;;5115405;28;20982;-55
2022/12/31 09:27:04;;;;;;;3.43;1.60;;;16.30;99.90;;;;;;5115233;28;20442;-55
2022/12/31 09:29:47;;;;;;;1.50;1.40;;;16.40;99.90;;;;;;5115645;28;20490;-55
2022/12/31 09:32:19;;;;;;;3.13;1.70;;;;;;;;;;5115475;28;20404;-55
2022/12/31 09:34:54;;;;;;;1.67;1.57;;;16.60;99.90;;;;;;5115637;28;20470;-55
2022/12/31 09:37:28;;;;;;;1.43;1.33;;;16.70;99.90;;;;;;5115453;28;20450;-55
2022/12/31 09:40:00;;;;;;;2.10;1.50;;;16.70;99.90;;;;;;5115274;28;20465;-55
2022/12/31 09:43:13;;;;;;;1.60;1.43;;;16.80;99.90;;;;;;5115188;28;20947;-55
2022/12/31 09:46:04;;;;;;;3.03;1.50;;;16.90;99.90;;;;;;5078488;28;20901;-55
2022/12/31 09:48:48;;;;;;;1.53;1.30;;;16.90;99.90;;;;;;5115081;28;20897;-55
2022/12/31 09:51:29;;;;;;;1.37;1.27;;;17.00;99.90;;;;;;5114940;28;20549;-56
2022/12/31 09:54:23;;;;;;;1.97;1.70;;;17.10;99.90;;;;;;5114804;28;20467;-55
2022/12/31 09:57:05;;;;;;;4.80;1.60;;;17.10;99.90;;;;;;5114757;28;20451;-56
2022/12/31 09:59:39;;;;;;;1.50;1.40;;;17.20;99.90;;;;;;5114682;28;20904;-55
2022/12/31 10:02:16;;;;;;;1.70;1.60;;;17.30;99.90;;;;;;5115060;28;20426;-55
2022/12/31 10:05:03;;;;;;;2.70;1.47;;;17.30;99.90;;;;;;5114979;28;20779;-55
2022/12/31 10:07:46;;;;;;;1.57;1.43;;;17.30;99.90;;;;;;5114970;28;20450;-55
2022/12/31 10:10:18;;;;;;;2.17;1.20;;;17.50;99.90;;;;;;5114690;28;20881;-55
2022/12/31 10:13:14;;;;;;;1.40;1.30;;;17.60;99.90;;;;;;5114711;28;20427;-55
2022/12/31 10:16:04;;;;;;;1.77;1.50;;;17.70;99.90;;;;;;5114793;28;20457;-55
2022/12/31 10:19:04;;;;;;;1.70;1.33;;;17.70;99.90;;;;;;5114475;28;20412;-55
2022/12/31 10:21:46;;;;;;;1.30;1.20;;;17.80;99.90;;;;;;5069749;28;20948;-55
2022/12/31 10:24:34;;;;;;;1.53;1.37;;;17.80;99.90;;;;;;5114336;28;20423;-55
2022/12/31 10:27:28;;;;;;;1.37;1.27;;;17.80;99.90;;;;;;5114683;28;20461;-56
2022/12/31 10:30:02;;;;;;;1.30;1.20;;;17.80;99.90;;;;;;5114152;28;21023;-55
2022/12/31 10:32:42;;;;;;;4.27;1.40;;;17.90;99.90;;;;;;5113905;28;20425;-55
2022/12/31 10:35:27;;;;;;;1.30;1.20;;;18.00;99.90;;;;;;5113930;28;20498;-55
2022/12/31 10:38:06;;;;;;;1.53;1.43;;;18.00;99.90;;;;;;5114303;28;20454;-56
2022/12/31 10:41:02;;;;;;;1.30;1.20;;;18.30;99.90;;;;;;5113749;28;20987;-56
2022/12/31 10:44:04;;;;;;;2.00;1.50;;;18.80;99.90;;;;;;5113742;28;20473;-55
2022/12/31 10:47:10;;;;;;;1.50;1.40;;;19.60;99.90;;;;;;5110622;28;20454;-55
2022/12/31 10:50:09;;;;;;;3.87;1.20;;;20.60;99.90;;;;;;5114113;28;20461;-56
2022/12/31 10:53:06;;;;;;;1.43;1.20;;;21.30;99.90;;;;;;5113223;28;20525;-56
2022/12/31 10:56:14;;;;;;;1.40;1.30;;;21.90;99.90;;;;;;5114026;28;20473;-54
2022/12/31 10:59:11;;;;;;;3.50;2.57;;;22.10;99.90;;;;;;5114225;28;20423;-54
2022/12/31 11:01:48;;;;;;;1.53;1.40;;;22.00;99.90;;;;;;5069428;28;20888;-55
2022/12/31 11:04:49;;;;;;;1.70;1.30;;;22.60;99.90;;;;;;5113854;28;20479;-55
2022/12/31 11:07:50;;;;;;;2.10;1.30;;;23.10;99.90;;;;;;5113767;28;20490;-55
2022/12/31 11:10:54;;;;;;;2.13;1.43;;;22.80;99.90;;;;;;5113479;28;20497;-55
2022/12/31 11:14:05;;;;;;;1.70;1.23;;;22.40;99.90;;;;;;5113603;28;20912;-55
2022/12/31 11:16:43;;;;;;;1.83;1.40;;;22.30;99.90;;;;;;5083162;28;20482;-55
2022/12/31 11:19:19;;;;;;;1.43;1.10;;;22.00;99.90;;;;;;5113905;28;20422;-55
2022/12/31 11:22:17;;;;;;;1.30;1.10;;;21.90;99.90;;;;;;5113878;28;20433;-54
2022/12/31 11:25:01;;;;;;;1.73;1.20;;;22.10;99.90;;;;;;5085683;28;20533;-55
2022/12/31 11:27:46;;;;;;;1.50;1.20;;;21.20;99.90;;;;;;5113563;28;20457;-55
2022/12/31 11:30:22;;;;;;;1.60;1.30;;;21.50;99.90;;;;;;5113398;28;20465;-55
2022/12/31 11:33:07;;;;;;;2.37;1.37;;;22.10;99.90;;;;;;5113541;28;20787;-54
2022/12/31 11:35:44;;;;;;;1.27;1.10;;;21.50;99.90;;;;;;5113721;28;20494;-55
2022/12/31 11:38:22;;;;;;;1.30;1.20;;;21.50;99.90;;;;;;5113767;28;20456;-54
2022/12/31 11:40:56;;;;;;;1.70;1.30;;;21.20;99.90;;;;;;5116526;28;20476;-54
2022/12/31 11:43:33;;;;;;;1.83;1.60;;;21.50;99.90;;;;;;5117258;28;20481;-55
2022/12/31 11:46:32;;;;;;;1.33;1.20;;;21.50;99.90;;;;;;5117536;28;20426;-54
2022/12/31 11:49:33;;;;;;;1.43;1.10;;;21.00;99.90;;;;;;5117608;28;20517;-54
2022/12/31 11:52:31;;;;;;;1.77;1.30;;;20.50;99.90;;;;;;5117449;28;20446;-54
2022/12/31 11:55:23;;;;;;;1.40;1.30;;;20.40;99.90;;;;;;5116403;28;20747;-54
2022/12/31 11:57:51;;;;;;;1.33;1.20;;;20.40;99.90;;;;;;5117412;28;20522;-54
2022/12/31 12:00:21;;;;;;;1.40;1.30;;;20.20;99.90;;;;;;5117362;28;20470;-54
2022/12/31 12:02:50;;;;;;;2.23;1.20;;;19.90;99.90;;;;;;5117203;28;20529;-55
2022/12/31 12:05:20;;;;;;;2.20;1.47;;;19.90;99.90;;;;;;5117312;28;20439;-54
2022/12/31 12:07:48;;;;;;;1.33;1.23;;;19.90;99.90;;;;;;5116996;28;20462;-54
2022/12/31 12:10:24;;;;;;;1.57;1.37;;;19.80;99.90;;;;;;5117056;28;20466;-54
2022/12/31 12:12:51;;;;;;;1.50;1.40;;;19.90;99.90;;;;;;5117024;28;20423;-54
2022/12/31 12:15:22;;;;;;;1.40;1.30;;;19.90;99.90;;;;;;5117025;28;20478;-54
2022/12/31 12:17:57;;;;;;;1.57;1.47;;;20.10;99.90;;;;;;5116753;28;20433;-55
2022/12/31 12:20:31;;;;;;;2.00;1.33;;;20.00;99.90;;;;;;5116540;28;20504;-55
2022/12/31 12:23:00;;;;;;;1.40;1.30;;;19.90;99.90;;;;;;5116743;28;20487;-55
2022/12/31 12:25:37;;;;;;;1.60;1.23;;;19.80;99.90;;;;;;5116867;28;20438;-54
2022/12/31 12:28:17;;;;;;;1.33;1.23;;;19.90;99.90;;;;;;5116980;28;20476;-55
2022/12/31 12:30:45;;;;;;;2.90;2.33;;;19.90;99.90;;;;;;5116675;28;20466;-54
2022/12/31 12:33:17;;;;;;;2.33;1.33;;;19.80;99.90;;;;;;5116869;28;20495;-54
2022/12/31 12:35:46;;;;;;;1.40;1.30;;;19.70;99.90;;;;;;5116713;28;20467;-54
2022/12/31 12:38:16;;;;;;;1.30;1.20;;;19.70;99.90;;;;;;5116700;28;20552;-55
2022/12/31 12:40:55;;;;;;;1.60;1.47;;;19.70;99.90;;;;;;5116218;28;20466;-55
2022/12/31 12:43:25;;;;;;;1.80;1.30;;;19.60;99.90;;;;;;5116267;28;20478;-54
2022/12/31 12:45:53;;;;;;;1.70;1.30;;;19.60;99.90;;;;;;5116647;28;20918;-54
2022/12/31 12:48:26;;;;;;;1.70;1.50;;;19.60;99.90;;;;;;5116211;28;20457;-55
2022/12/31 12:50:54;;;;;;;1.53;1.43;;;19.60;99.90;;;;;;5114816;28;20467;-56
2022/12/31 12:53:37;;;;;;;1.90;1.30;;;19.60;99.90;;;;;;5115941;28;20442;-54
2022/12/31 12:56:14;;;;;;;2.80;1.20;;;19.70;99.90;;;;;;5116389;28;20492;-55
2022/12/31 12:58:54;;;;;;;1.50;1.40;;;19.80;99.90;;;;;;5116319;28;20878;-54
2022/12/31 13:01:29;;;;;;;1.47;1.30;;;19.80;99.90;;;;;;5116202;28;20612;-55
2022/12/31 13:04:22;;;;;;;1.60;1.47;;;19.70;99.90;;;;;;5115898;28;20426;-54
2022/12/31 13:07:05;;;;;;;1.40;1.30;;;19.70;99.90;;;;;;5116168;28;20510;-54
2022/12/31 13:09:49;;;;;;;1.60;1.33;;;19.70;99.90;;;;;;5115657;28;20463;-54
2022/12/31 13:12:24;;;;;;;1.50;1.40;;;19.60;99.90;;;;;;5115526;28;20558;-54
2022/12/31 13:14:59;;;;;;;6.33;1.50;;;19.60;99.90;;;;;;5115776;28;20531;-54
2022/12/31 13:17:50;;;;;;;1.30;1.20;;;19.50;99.90;;;;;;5115972;28;20513;-55
2022/12/31 13:20:26;;;;;;;1.60;1.23;;;19.60;99.90;;;;;;5115703;28;20549;-54
2022/12/31 13:23:03;;;;;;;1.30;1.20;;;19.60;99.90;;;;;;5115833;28;20506;-54
2022/12/31 13:25:37;;;;;;;2.30;1.20;;;19.50;99.90;;;;;;5115872;28;20431;-54
2022/12/31 13:28:09;;;;;;;1.30;1.20;;;19.50;99.90;;;;;;5115719;28;20518;-54
2022/12/31 13:30:39;;;;;;;1.70;1.50;;;19.50;99.90;;;;;;5115499;28;20494;-54
2022/12/31 13:33:11;;;;;;;1.50;1.30;;;19.50;99.90;;;;;;5115487;28;20784;-55
2022/12/31 13:35:44;;;;;;;1.33;1.23;;;19.40;99.90;;;;;;5115352;28;20466;-54
2022/12/31 13:38:18;;;;;;;1.20;1.10;;;19.40;99.90;;;;;;5115676;28;20466;-55